Terminal Aerodrome Forecast
Issued by NWS

Home | Current Version | Previous Version | Text Only | Print | Product List | Glossary On
Versions: 1 2 3 4 5 6 7 8 9 10 11 12 13 14 15 16 17 18 19 20 21 22 23 24
000
FTAK31 PAFA 270534
TAFAOM
TAF
PAOM 270534Z 2706/2806 14008KT P6SM FEW035 SCT060
     FM271200 11012KT P6SM BKN100
     FM271800 11013KT 5SM -RA OVC025
     FM272100 12013KT 2SM -RA BR OVC007
     FM280100 12008KT 3SM -SHRA BR OVC015=

USA.gov is the U.S. government's official web portal to all federal, state and local government web resources and services.